createdAt,value
2019-02-03T00:00:34.858Z,35.87
2019-02-03T00:03:01.310Z,35.83
2019-02-03T00:05:27.641Z,35.74
2019-02-03T00:07:53.944Z,35.66
2019-02-03T00:10:20.298Z,35.74
2019-02-03T00:12:46.650Z,35.70
2019-02-03T00:15:13.037Z,35.95
2019-02-03T00:17:39.370Z,35.78
2019-02-03T00:20:05.770Z,35.81
2019-02-03T00:22:32.118Z,35.75
2019-02-03T00:24:59.764Z,35.77
2019-02-03T00:27:26.113Z,35.84
2019-02-03T00:29:52.511Z,35.84
2019-02-03T00:32:18.881Z,35.79
2019-02-03T00:34:45.274Z,35.77
2019-02-03T00:37:15.747Z,35.87
2019-02-03T00:39:38.027Z,35.95
2019-02-03T00:42:04.369Z,35.94
2019-02-03T00:44:30.717Z,35.87
2019-02-03T00:46:57.062Z,35.79
2019-02-03T00:49:23.399Z,35.87
2019-02-03T00:51:49.734Z,35.77
2019-02-03T00:54:16.303Z,35.81
2019-02-03T00:56:42.653Z,35.85
2019-02-03T00:59:09.090Z,35.88
2019-02-03T01:01:35.406Z,35.87
2019-02-03T01:04:01.744Z,35.85
2019-02-03T01:06:28.115Z,35.85
2019-02-03T01:08:54.456Z,35.86
2019-02-03T01:11:20.851Z,35.86
2019-02-03T01:13:47.237Z,35.93
2019-02-03T01:16:13.581Z,35.87
2019-02-03T01:18:39.931Z,36.04
2019-02-03T01:21:06.275Z,35.91
2019-02-03T01:23:32.671Z,35.92
2019-02-03T01:25:58.974Z,35.98
2019-02-03T01:28:25.364Z,35.83
2019-02-03T01:30:51.749Z,35.93
2019-02-03T01:33:18.088Z,35.88
2019-02-03T01:35:44.522Z,35.90
2019-02-03T01:38:10.885Z,36.03
2019-02-03T01:40:37.278Z,35.92
2019-02-03T01:43:03.727Z,35.89
2019-02-03T01:45:30.086Z,35.97
2019-02-03T01:47:56.462Z,35.94
2019-02-03T01:50:22.923Z,35.81
2019-02-03T01:52:50.524Z,36.01
2019-02-03T01:55:15.665Z,35.99
2019-02-03T01:57:42.120Z,36.01
2019-02-03T02:00:08.616Z,35.91
2019-02-03T02:02:34.912Z,35.89
2019-02-03T02:05:01.286Z,35.92
2019-02-03T02:07:27.642Z,35.91
2019-02-03T02:09:53.969Z,35.84
2019-02-03T02:12:20.317Z,35.93
2019-02-03T02:14:46.706Z,35.97
2019-02-03T02:17:13.043Z,35.95
2019-02-03T02:19:39.497Z,35.89
2019-02-03T02:22:05.864Z,35.87
2019-02-03T02:24:32.245Z,35.99
2019-02-03T02:26:58.625Z,35.91
2019-02-03T02:29:24.969Z,35.98
2019-02-03T02:31:51.377Z,35.94
2019-02-03T02:34:17.715Z,35.85
2019-02-03T02:36:44.117Z,36.07
2019-02-03T02:39:10.514Z,36.04
2019-02-03T02:41:36.830Z,36.03
2019-02-03T02:44:03.189Z,36.03
2019-02-03T02:46:29.538Z,36.03
2019-02-03T02:48:55.997Z,36.06
2019-02-03T02:51:22.437Z,36.05
2019-02-03T02:53:48.638Z,35.98
2019-02-03T02:56:14.987Z,35.93
2019-02-03T02:58:44.392Z,36.11
2019-02-03T03:01:10.821Z,35.96
2019-02-03T03:03:37.173Z,36.10
2019-02-03T03:06:03.527Z,36.05
2019-02-03T03:08:29.872Z,36.23
2019-02-03T03:10:56.298Z,35.95
2019-02-03T03:13:22.732Z,36.05
2019-02-03T03:15:49.095Z,36.16
2019-02-03T03:18:15.450Z,36.16
2019-02-03T03:20:41.799Z,36.11
2019-02-03T03:23:08.154Z,36.06
2019-02-03T03:25:34.553Z,36.09
2019-02-03T03:28:00.940Z,36.17
2019-02-03T03:30:27.316Z,36.13
2019-02-03T03:32:53.699Z,36.15
2019-02-03T03:35:20.012Z,36.24
2019-02-03T03:37:46.354Z,36.10
2019-02-03T03:40:12.708Z,36.17
2019-02-03T03:42:39.112Z,36.19
2019-02-03T03:45:05.569Z,36.22
2019-02-03T03:47:31.895Z,36.13
2019-02-03T03:49:58.233Z,36.18
2019-02-03T03:52:24.579Z,36.22
2019-02-03T03:54:50.940Z,36.11
2019-02-03T03:57:17.356Z,36.16
2019-02-03T03:59:43.739Z,36.19
2019-02-03T04:02:10.087Z,36.15
2019-02-03T04:04:36.440Z,36.17
2019-02-03T04:07:02.935Z,36.13
2019-02-03T04:09:29.315Z,36.14
2019-02-03T04:11:55.635Z,36.22
2019-02-03T04:14:21.981Z,36.26
2019-02-03T04:16:48.378Z,36.23
2019-02-03T04:19:15.753Z,36.16
2019-02-03T04:21:41.161Z,36.23
2019-02-03T04:24:09.703Z,36.22
2019-02-03T04:26:36.051Z,36.35
2019-02-03T04:29:02.398Z,36.19
2019-02-03T04:31:28.787Z,36.22
2019-02-03T04:33:55.081Z,36.26
2019-02-03T04:36:21.452Z,36.26
2019-02-03T04:38:57.553Z,36.27
2019-02-03T04:41:14.140Z,36.32
2019-02-03T04:43:40.483Z,36.19
2019-02-03T04:46:06.843Z,36.19
2019-02-03T04:48:33.179Z,36.22
2019-02-03T04:50:59.540Z,36.29
2019-02-03T04:53:25.868Z,36.26
2019-02-03T04:55:52.245Z,36.19
2019-02-03T04:58:18.604Z,36.22
2019-02-03T05:00:44.966Z,36.22
2019-02-03T05:03:11.316Z,36.26
2019-02-03T05:05:37.697Z,36.19
2019-02-03T05:08:04.048Z,36.18
2019-02-03T05:10:30.517Z,36.16
2019-02-03T05:12:56.879Z,36.28
2019-02-03T05:15:23.231Z,36.21
2019-02-03T05:17:49.773Z,36.29
2019-02-03T05:20:16.116Z,36.39
2019-02-03T05:22:42.427Z,36.26
2019-02-03T05:25:08.780Z,36.31
2019-02-03T05:27:35.143Z,36.19
2019-02-03T05:30:01.546Z,36.17
2019-02-03T05:32:27.906Z,36.32
2019-02-03T05:34:54.261Z,36.20
2019-02-03T05:37:20.666Z,36.19
2019-02-03T05:39:47.042Z,36.35
2019-02-03T05:42:13.360Z,36.38
2019-02-03T05:44:39.691Z,36.36
2019-02-03T05:47:06.023Z,36.39
2019-02-03T05:49:32.403Z,36.28
2019-02-03T05:51:58.730Z,36.34
2019-02-03T05:54:25.096Z,36.30
2019-02-03T05:56:51.414Z,36.26
2019-02-03T05:59:17.732Z,36.39
2019-02-03T06:01:44.169Z,36.35
2019-02-03T06:04:10.495Z,36.36
2019-02-03T06:06:36.846Z,36.42
2019-02-03T06:09:03.216Z,36.32
2019-02-03T06:11:29.553Z,36.37
2019-02-03T06:13:55.929Z,36.41
2019-02-03T06:16:22.249Z,36.24
2019-02-03T06:18:51.081Z,36.33
2019-02-03T06:21:17.421Z,36.36
2019-02-03T06:23:43.805Z,36.38
2019-02-03T06:26:10.236Z,36.32
2019-02-03T06:28:36.575Z,36.32
2019-02-03T06:31:02.913Z,36.39
2019-02-03T06:33:29.277Z,36.39
2019-02-03T06:35:55.638Z,36.36
2019-02-03T06:38:21.969Z,36.35
2019-02-03T06:40:48.304Z,36.35
2019-02-03T06:43:14.649Z,36.39
2019-02-03T06:45:41.084Z,36.38
2019-02-03T06:48:07.420Z,36.39
2019-02-03T06:50:33.751Z,36.30
2019-02-03T06:53:00.074Z,36.29
2019-02-03T06:55:26.443Z,36.39
2019-02-03T06:57:52.787Z,36.35
2019-02-03T07:00:19.117Z,36.27
2019-02-03T07:02:48.188Z,36.29
2019-02-03T07:05:14.515Z,36.36
2019-02-03T07:07:40.860Z,36.36
2019-02-03T07:10:07.243Z,36.26
2019-02-03T07:12:33.643Z,36.33
2019-02-03T07:14:59.975Z,36.45
2019-02-03T07:17:26.412Z,36.41
2019-02-03T07:19:52.745Z,36.40
2019-02-03T07:22:19.090Z,36.40
2019-02-03T07:24:45.435Z,36.42
2019-02-03T07:27:12.120Z,36.39
2019-02-03T07:29:38.132Z,36.40
2019-02-03T07:32:04.463Z,36.41
2019-02-03T07:34:30.793Z,36.43
2019-02-03T07:36:57.191Z,36.45
2019-02-03T07:39:23.513Z,36.35
2019-02-03T07:41:49.890Z,36.46
2019-02-03T07:44:16.221Z,36.42
2019-02-03T07:46:42.594Z,36.44
2019-02-03T07:49:08.922Z,36.43
2019-02-03T07:51:35.319Z,36.40
2019-02-03T07:54:08.546Z,36.54
2019-02-03T07:56:28.025Z,36.41
2019-02-03T07:58:54.355Z,36.56
2019-02-03T08:01:20.693Z,36.39
2019-02-03T08:03:47.154Z,36.54
2019-02-03T08:06:13.494Z,36.45
2019-02-03T08:08:39.894Z,36.39
2019-02-03T08:11:06.244Z,36.38
2019-02-03T08:13:32.678Z,36.50
2019-02-03T08:15:59.003Z,36.36
2019-02-03T08:18:25.337Z,36.48
2019-02-03T08:20:51.660Z,36.51
2019-02-03T08:23:17.988Z,36.40
2019-02-03T08:25:44.320Z,36.35
2019-02-03T08:28:10.762Z,36.39
2019-02-03T08:30:37.130Z,36.42
2019-02-03T08:33:03.477Z,36.56
2019-02-03T08:35:29.807Z,36.31
2019-02-03T08:37:56.195Z,36.26
2019-02-03T08:40:22.521Z,36.40
2019-02-03T08:42:48.946Z,36.35
2019-02-03T08:45:15.275Z,36.29
2019-02-03T08:47:41.606Z,36.28
2019-02-03T08:50:07.937Z,36.39
2019-02-03T08:52:34.392Z,36.41
2019-02-03T08:55:00.710Z,36.32
2019-02-03T08:57:27.063Z,36.29
2019-02-03T08:59:53.404Z,36.29
2019-02-03T09:02:19.741Z,36.25
2019-02-03T09:04:46.120Z,36.13
2019-02-03T09:07:12.413Z,36.26
2019-02-03T09:09:38.730Z,36.37
2019-02-03T09:12:05.070Z,36.26
2019-02-03T09:14:31.451Z,36.23
2019-02-03T09:16:57.823Z,36.27
2019-02-03T09:19:24.106Z,36.20
2019-02-03T09:21:50.538Z,36.27
2019-02-03T09:24:16.950Z,36.19
2019-02-03T09:26:43.304Z,36.26
2019-02-03T09:29:09.660Z,36.25
2019-02-03T09:31:36.104Z,36.23
2019-02-03T09:34:02.315Z,36.26
2019-02-03T09:36:28.716Z,36.16
2019-02-03T09:38:55.047Z,36.26
2019-02-03T09:41:21.377Z,36.19
2019-02-03T09:43:47.718Z,36.23
2019-02-03T09:46:14.079Z,36.29
2019-02-03T09:48:40.414Z,36.27
2019-02-03T09:51:06.746Z,36.19
2019-02-03T09:53:33.093Z,36.29
2019-02-03T09:55:59.447Z,36.12
2019-02-03T09:58:25.824Z,36.19
2019-02-03T10:00:52.198Z,36.13
2019-02-03T10:03:18.526Z,36.20
2019-02-03T10:05:44.872Z,36.24
2019-02-03T10:08:11.202Z,36.21
2019-02-03T10:10:37.571Z,36.22
2019-02-03T10:13:03.886Z,36.11
2019-02-03T10:15:30.242Z,36.10
2019-02-03T10:17:56.571Z,36.13
2019-02-03T10:20:22.897Z,36.13
2019-02-03T10:22:49.232Z,36.16
2019-02-03T10:25:15.559Z,36.10
2019-02-03T10:27:44.702Z,36.06
2019-02-03T10:30:11.000Z,36.17
2019-02-03T10:32:37.336Z,36.00
2019-02-03T10:35:03.659Z,36.07
2019-02-03T10:37:29.994Z,36.04
2019-02-03T10:39:56.327Z,36.03
2019-02-03T10:42:22.654Z,36.01
2019-02-03T10:44:49.027Z,35.99
2019-02-03T10:47:15.367Z,35.92
2019-02-03T10:49:41.698Z,35.96
2019-02-03T10:52:08.027Z,35.93
2019-02-03T10:54:34.355Z,35.93
2019-02-03T10:57:00.694Z,35.95
2019-02-03T10:59:27.050Z,36.06
2019-02-03T11:01:53.380Z,36.06
2019-02-03T11:04:19.713Z,35.88
2019-02-03T11:06:46.091Z,35.84
2019-02-03T11:09:12.460Z,35.82
2019-02-03T11:11:38.796Z,35.77
2019-02-03T11:14:05.121Z,35.65
2019-02-03T11:16:31.440Z,35.70
2019-02-03T11:18:57.820Z,35.71
2019-02-03T11:21:24.175Z,35.76
2019-02-03T11:23:50.521Z,35.68
2019-02-03T11:26:16.856Z,35.63
2019-02-03T11:28:43.194Z,35.66
2019-02-03T11:31:09.553Z,35.57
2019-02-03T11:33:35.906Z,35.65
2019-02-03T11:36:02.279Z,35.52
2019-02-03T11:38:28.687Z,35.39
2019-02-03T11:40:55.093Z,35.37
2019-02-03T11:43:21.517Z,35.33
2019-02-03T11:45:47.847Z,35.27
2019-02-03T11:48:16.124Z,35.26
2019-02-03T11:50:41.741Z,35.27
2019-02-03T11:53:06.835Z,35.26
2019-02-03T11:55:33.176Z,35.16
2019-02-03T11:57:59.503Z,35.18
2019-02-03T12:00:27.787Z,35.11
2019-02-03T12:02:54.817Z,35.15
2019-02-03T12:05:25.848Z,35.06
2019-02-03T12:07:50.294Z,35.05
2019-02-03T12:10:18.835Z,35.19
2019-02-03T12:12:45.156Z,35.07
2019-02-03T12:15:11.626Z,35.03
2019-02-03T12:17:38.032Z,35.06
2019-02-03T12:20:06.330Z,34.87
2019-02-03T12:22:30.700Z,34.84
2019-02-03T12:24:59.279Z,34.94
2019-02-03T12:27:25.654Z,34.93
2019-02-03T12:29:51.946Z,34.90
2019-02-03T12:32:22.319Z,34.93
2019-02-03T12:34:44.632Z,34.91
2019-02-03T12:37:10.975Z,34.82
2019-02-03T12:39:39.284Z,34.81
2019-02-03T12:42:12.862Z,34.78
2019-02-03T12:44:33.982Z,34.80
2019-02-03T12:46:58.280Z,34.80
2019-02-03T12:49:24.668Z,34.79
2019-02-03T12:51:53.423Z,34.82
2019-02-03T12:54:22.766Z,34.74
2019-02-03T12:56:49.102Z,34.71
2019-02-03T12:59:15.462Z,34.67
2019-02-03T13:01:41.777Z,34.80
2019-02-03T13:04:10.557Z,34.76
2019-02-03T13:06:37.014Z,34.67
2019-02-03T13:09:07.475Z,34.69
2019-02-03T13:11:29.728Z,34.66
2019-02-03T13:13:57.797Z,34.68
2019-02-03T13:16:22.456Z,34.80
2019-02-03T13:18:50.418Z,34.85
2019-02-03T13:21:16.790Z,34.75
2019-02-03T13:23:46.796Z,34.55
2019-02-03T13:26:12.003Z,34.58
2019-02-03T13:28:39.340Z,34.68
2019-02-03T13:31:11.196Z,34.63
2019-02-03T13:33:36.271Z,34.64
2019-02-03T13:36:04.656Z,34.62
2019-02-03T13:38:29.024Z,34.86
2019-02-03T13:40:55.345Z,34.94
2019-02-03T13:43:24.193Z,34.78
2019-02-03T13:45:51.513Z,34.61
2019-02-03T13:48:16.915Z,34.64
2019-02-03T13:50:43.274Z,34.63
2019-02-03T13:53:11.619Z,34.60
2019-02-03T13:55:37.990Z,34.58
2019-02-03T13:58:04.367Z,34.69
2019-02-03T14:00:30.719Z,34.62
2019-02-03T14:02:59.052Z,34.84
2019-02-03T14:05:23.387Z,34.79
2019-02-03T14:07:49.731Z,34.53
2019-02-03T14:10:16.068Z,35.00
2019-02-03T14:12:50.221Z,35.01
2019-02-03T14:15:08.757Z,34.71
2019-02-03T14:17:37.850Z,35.00
2019-02-03T14:20:04.206Z,34.71
2019-02-03T14:22:36.204Z,34.85
2019-02-03T14:25:04.880Z,34.77
2019-02-03T14:27:33.740Z,34.42
2019-02-03T14:30:00.033Z,34.35
2019-02-03T14:32:32.426Z,34.92
2019-02-03T14:34:54.015Z,34.67
2019-02-03T14:37:20.357Z,34.94
2019-02-03T14:39:49.718Z,35.06
2019-02-03T14:42:13.739Z,34.45
2019-02-03T14:44:48.917Z,34.86
2019-02-03T14:47:14.007Z,34.93
2019-02-03T14:49:41.292Z,34.92
2019-02-03T14:52:10.059Z,34.85
2019-02-03T14:54:35.215Z,34.97
2019-02-03T14:57:01.543Z,34.94
2019-02-03T14:59:27.931Z,34.67
2019-02-03T15:01:56.714Z,34.60
2019-02-03T15:04:25.146Z,34.65
2019-02-03T15:06:49.499Z,34.55
2019-02-03T15:09:17.982Z,34.50
2019-02-03T15:11:42.403Z,34.62
2019-02-03T15:14:11.743Z,34.60
2019-02-03T15:16:38.094Z,34.47
2019-02-03T15:19:04.424Z,34.45
2019-02-03T15:21:31.781Z,34.40
2019-02-03T15:23:57.144Z,34.37
2019-02-03T15:26:23.478Z,34.36
2019-02-03T15:28:51.876Z,34.42
2019-02-03T15:31:16.232Z,34.43
2019-02-03T15:33:44.780Z,34.35
2019-02-03T15:36:13.103Z,34.39
2019-02-03T15:38:38.722Z,34.43
2019-02-03T15:41:05.140Z,34.48
2019-02-03T15:43:32.988Z,34.49
2019-02-03T15:45:59.317Z,34.53
2019-02-03T15:48:29.526Z,34.47
2019-02-03T15:50:54.769Z,34.40
2019-02-03T15:53:21.098Z,34.42
2019-02-03T15:55:47.451Z,34.43
2019-02-03T15:58:13.781Z,34.42
2019-02-03T16:00:45.266Z,34.47
2019-02-03T16:03:11.658Z,34.55
2019-02-03T16:05:38.207Z,34.55
2019-02-03T16:08:04.553Z,34.54
2019-02-03T16:10:30.882Z,34.53
2019-02-03T16:12:57.335Z,34.43
2019-02-03T16:15:23.671Z,34.52
2019-02-03T16:17:52.066Z,34.57
2019-02-03T16:20:18.398Z,34.52
2019-02-03T16:22:44.728Z,34.52
2019-02-03T16:25:11.076Z,34.58
2019-02-03T16:27:37.473Z,34.58
2019-02-03T16:30:03.797Z,34.82
2019-02-03T16:32:30.150Z,34.67
2019-02-03T16:35:00.333Z,34.56
2019-02-03T16:37:26.618Z,34.71
2019-02-03T16:39:52.971Z,34.74
2019-02-03T16:42:19.327Z,34.74
2019-02-03T16:44:45.795Z,34.78
2019-02-03T16:47:14.746Z,34.94
2019-02-03T16:49:38.505Z,35.09
2019-02-03T16:52:05.834Z,35.20
2019-02-03T16:54:31.193Z,35.33
2019-02-03T16:56:57.517Z,35.38
2019-02-03T16:59:26.699Z,35.42
2019-02-03T17:01:53.146Z,35.42
2019-02-03T17:04:23.083Z,35.45
2019-02-03T17:06:49.216Z,35.46
2019-02-03T17:09:14.753Z,35.61
2019-02-03T17:11:40.979Z,35.68
2019-02-03T17:14:07.325Z,35.74
2019-02-03T17:16:33.664Z,35.60
2019-02-03T17:19:00.071Z,35.76
2019-02-03T17:21:26.348Z,35.85
2019-02-03T17:23:52.682Z,35.75
2019-02-03T17:26:19.045Z,35.71
2019-02-03T17:28:46.572Z,35.85
2019-02-03T17:31:11.767Z,35.84
2019-02-03T17:33:38.106Z,35.86
2019-02-03T17:36:04.497Z,35.85
2019-02-03T17:38:30.844Z,35.84
2019-02-03T17:40:57.225Z,35.85
2019-02-03T17:43:26.333Z,35.89
2019-02-03T17:45:52.695Z,35.98
2019-02-03T17:48:19.024Z,35.86
2019-02-03T17:50:45.357Z,36.04
2019-02-03T17:53:11.716Z,36.05
2019-02-03T17:55:38.072Z,35.93
2019-02-03T17:58:04.401Z,36.09
2019-02-03T18:00:33.563Z,35.94
2019-02-03T18:02:59.893Z,36.02
2019-02-03T18:05:26.298Z,36.00
2019-02-03T18:07:52.631Z,36.12
2019-02-03T18:10:21.793Z,36.01
2019-02-03T18:12:48.130Z,36.10
2019-02-03T18:15:14.463Z,36.17
2019-02-03T18:17:40.862Z,36.13
2019-02-03T18:20:07.202Z,36.27
2019-02-03T18:22:33.551Z,36.19
2019-02-03T18:24:59.882Z,36.22
2019-02-03T18:27:29.321Z,36.07
2019-02-03T18:29:55.690Z,36.15
2019-02-03T18:32:22.098Z,36.22
2019-02-03T18:34:48.428Z,36.23
2019-02-03T18:37:14.788Z,36.21
2019-02-03T18:39:42.541Z,36.32
2019-02-03T18:42:07.530Z,36.24
2019-02-03T18:44:38.979Z,36.33
2019-02-03T18:47:02.530Z,36.27
2019-02-03T18:49:28.875Z,36.30
2019-02-03T18:51:56.953Z,36.30
2019-02-03T18:54:26.321Z,36.32
2019-02-03T18:56:50.689Z,36.52
2019-02-03T18:59:17.012Z,36.37
2019-02-03T19:01:44.649Z,36.34
2019-02-03T19:04:12.309Z,36.35
2019-02-03T19:06:38.665Z,36.40
2019-02-03T19:09:05.036Z,36.38
2019-02-03T19:11:31.427Z,36.35
2019-02-03T19:13:57.751Z,36.55
2019-02-03T19:16:24.145Z,36.56
2019-02-03T19:18:50.474Z,36.48
2019-02-03T19:21:16.844Z,36.40
2019-02-03T19:23:48.285Z,36.34
2019-02-03T19:26:12.780Z,36.44
2019-02-03T19:28:42.832Z,36.50
2019-02-03T19:31:09.089Z,36.51
2019-02-03T19:33:34.264Z,36.62
2019-02-03T19:36:00.602Z,36.53
2019-02-03T19:38:31.626Z,36.56
2019-02-03T19:40:53.326Z,36.57
2019-02-03T19:43:21.930Z,36.53
2019-02-03T19:45:52.057Z,36.61
2019-02-03T19:48:18.290Z,36.60
2019-02-03T19:50:43.423Z,36.75
2019-02-03T19:53:09.755Z,36.62
2019-02-03T19:55:36.131Z,36.68
2019-02-03T19:58:06.751Z,36.74
2019-02-03T20:00:33.378Z,36.74
2019-02-03T20:03:06.618Z,36.77
2019-02-03T20:05:28.487Z,36.71
2019-02-03T20:07:57.104Z,36.75
2019-02-03T20:10:27.496Z,36.74
2019-02-03T20:12:53.397Z,36.81
2019-02-03T20:15:18.505Z,36.78
2019-02-03T20:17:52.110Z,36.77
2019-02-03T20:20:18.448Z,36.71
2019-02-03T20:22:44.783Z,36.88
2019-02-03T20:25:15.093Z,36.90
2019-02-03T20:27:42.666Z,36.80
2019-02-03T20:30:09.049Z,36.78
2019-02-03T20:32:35.386Z,36.75
2019-02-03T20:35:07.985Z,36.85
2019-02-03T20:37:34.323Z,36.74
2019-02-03T20:40:02.385Z,36.83
2019-02-03T20:42:27.000Z,36.91
2019-02-03T20:44:53.306Z,36.84
2019-02-03T20:47:19.638Z,36.76
2019-02-03T20:49:45.985Z,36.90
2019-02-03T20:52:13.430Z,37.00
2019-02-03T20:54:38.695Z,36.86
2019-02-03T20:57:06.977Z,36.84
2019-02-03T20:59:33.306Z,36.89
2019-02-03T21:01:59.671Z,36.89
2019-02-03T21:04:26.038Z,36.77
2019-02-03T21:06:55.233Z,36.91
2019-02-03T21:09:25.437Z,36.91
2019-02-03T21:11:50.721Z,36.87
2019-02-03T21:14:18.013Z,36.89
2019-02-03T21:16:43.451Z,36.81
2019-02-03T21:19:11.768Z,37.00
2019-02-03T21:21:36.167Z,36.80
2019-02-03T21:24:02.508Z,36.84
2019-02-03T21:26:30.496Z,36.90
2019-02-03T21:28:55.197Z,36.86
2019-02-03T21:31:21.633Z,36.80
2019-02-03T21:33:47.904Z,36.84
2019-02-03T21:36:14.238Z,36.93
2019-02-03T21:38:42.824Z,36.94
2019-02-03T21:41:10.353Z,36.93
2019-02-03T21:43:37.198Z,36.97
2019-02-03T21:46:01.920Z,36.90
2019-02-03T21:48:33.009Z,36.91
2019-02-03T21:50:56.295Z,36.91
2019-02-03T21:53:22.656Z,36.93
2019-02-03T21:55:49.107Z,37.00
2019-02-03T21:58:15.440Z,36.93
2019-02-03T22:00:41.811Z,36.93
2019-02-03T22:03:11.490Z,36.93
2019-02-03T22:05:44.088Z,36.88
2019-02-03T22:08:16.378Z,36.99
2019-02-03T22:10:38.427Z,36.93
2019-02-03T22:13:04.759Z,36.84
2019-02-03T22:15:37.093Z,36.95
2019-02-03T22:18:03.446Z,37.03
2019-02-03T22:20:29.812Z,36.94
2019-02-03T22:22:59.102Z,36.98
2019-02-03T22:25:35.822Z,37.03
2019-02-03T22:27:51.756Z,36.93
2019-02-03T22:30:21.009Z,37.01
2019-02-03T22:32:46.156Z,37.00
2019-02-03T22:35:16.568Z,37.01
2019-02-03T22:37:41.301Z,37.01
2019-02-03T22:40:10.705Z,37.08
2019-02-03T22:42:35.750Z,37.01
2019-02-03T22:45:02.029Z,36.96
2019-02-03T22:47:28.394Z,36.96
2019-02-03T22:49:55.879Z,36.93
2019-02-03T22:52:22.329Z,36.97
2019-02-03T22:54:50.143Z,37.00
2019-02-03T22:57:16.475Z,37.04
2019-02-03T22:59:42.831Z,37.13
2019-02-03T23:02:12.184Z,36.94
2019-02-03T23:04:38.536Z,36.92
2019-02-03T23:07:04.887Z,37.07
2019-02-03T23:09:33.068Z,37.09
2019-02-03T23:11:57.528Z,37.04
2019-02-03T23:14:23.857Z,37.08
2019-02-03T23:16:50.274Z,37.05
2019-02-03T23:19:16.624Z,36.97
2019-02-03T23:21:44.985Z,36.96
2019-02-03T23:24:11.323Z,37.13
2019-02-03T23:26:35.698Z,37.16
2019-02-03T23:29:02.059Z,37.16
2019-02-03T23:31:28.417Z,37.16
2019-02-03T23:33:54.783Z,37.08
2019-02-03T23:36:21.151Z,37.07
2019-02-03T23:38:47.556Z,37.07
2019-02-03T23:41:13.965Z,37.15
2019-02-03T23:43:40.263Z,37.03
2019-02-03T23:46:06.654Z,37.07
2019-02-03T23:48:33.168Z,37.08
2019-02-03T23:50:59.497Z,37.22
2019-02-03T23:53:25.840Z,37.00
2019-02-03T23:55:52.273Z,37.13
2019-02-03T23:58:18.620Z,37.17
